createdAt,value
2023-02-24T00:00:51.642Z,31.67
2023-02-24T00:02:20.397Z,31.30
2023-02-24T00:03:06.532Z,31.57
2023-02-24T00:03:45.895Z,33.40
2023-02-24T00:04:31.024Z,32.10
2023-02-24T00:05:19.853Z,31.60
2023-02-24T00:05:59.027Z,32.47
2023-02-24T00:06:41.608Z,32.40
2023-02-24T00:07:21.731Z,32.70
2023-02-24T00:08:03.466Z,31.83
2023-02-24T00:09:44.696Z,32.60
2023-02-24T00:11:44.219Z,33.37
2023-02-24T00:13:04.807Z,32.97
2023-02-24T00:13:51.609Z,32.63
2023-02-24T00:14:55.658Z,33.53
2023-02-24T00:16:55.854Z,34.37
2023-02-24T00:17:46.462Z,36.20
2023-02-24T00:18:33.852Z,34.67
2023-02-24T00:19:17.972Z,35.83
2023-02-24T00:20:05.415Z,35.57
2023-02-24T00:20:45.858Z,34.53
2023-02-24T00:21:31.239Z,34.07
2023-02-24T00:22:13.415Z,33.90
2023-02-24T00:22:52.735Z,33.50
2023-02-24T00:23:32.802Z,33.50
2023-02-24T00:24:13.555Z,34.70
2023-02-24T00:26:00.116Z,34.77
2023-02-24T00:26:40.513Z,35.07
2023-02-24T00:27:29.639Z,34.53
2023-02-24T00:28:08.984Z,34.67
2023-02-24T00:28:50.873Z,35.67
2023-02-24T00:29:30.238Z,34.97
2023-02-24T00:30:12.123Z,35.33
2023-02-24T00:30:53.103Z,35.17
2023-02-24T00:32:13.257Z,35.07
2023-02-24T00:32:52.806Z,33.37
2023-02-24T00:33:32.838Z,33.50
2023-02-24T00:34:15.292Z,34.83
2023-02-24T00:34:55.387Z,32.67
2023-02-24T00:35:42.626Z,33.37
2023-02-24T00:36:24.759Z,33.30
2023-02-24T00:37:43.858Z,33.63
2023-02-24T00:39:14.912Z,35.27
2023-02-24T00:41:16.151Z,30.93
2023-02-24T00:42:04.820Z,30.93
2023-02-24T00:43:26.215Z,30.50
2023-02-24T00:44:48.061Z,30.87
2023-02-24T00:46:47.311Z,30.63
2023-02-24T00:47:26.547Z,31.40
2023-02-24T00:48:30.381Z,30.50
2023-02-24T00:49:48.443Z,29.90
2023-02-24T00:50:52.618Z,30.93
2023-02-24T00:52:13.883Z,30.60
2023-02-24T00:52:51.743Z,31.30
2023-02-24T00:53:30.749Z,30.10
2023-02-24T00:54:15.143Z,29.60
2023-02-24T00:54:54.824Z,30.90
2023-02-24T00:55:36.509Z,31.43
2023-02-24T00:56:16.915Z,29.47
2023-02-24T00:56:58.756Z,30.23
2023-02-24T00:57:50.514Z,30.23
2023-02-24T00:58:30.166Z,30.37
2023-02-24T00:59:11.886Z,29.37
2023-02-24T00:59:54.699Z,29.53
2023-02-24T01:00:43.534Z,29.93
2023-02-24T01:01:26.384Z,30.07
2023-02-24T01:02:08.803Z,29.67
2023-02-24T01:02:48.049Z,30.00
2023-02-24T01:03:31.991Z,29.03
2023-02-24T01:04:14.340Z,28.87
2023-02-24T01:05:05.139Z,28.37
2023-02-24T01:05:52.923Z,28.23
2023-02-24T01:06:34.528Z,28.83
2023-02-24T01:07:14.421Z,30.20
2023-02-24T01:08:02.829Z,30.20
2023-02-24T01:08:47.659Z,29.60
2023-02-24T01:09:31.448Z,30.23
2023-02-24T01:11:23.348Z,30.23
2023-02-24T01:12:23.786Z,27.07
2023-02-24T01:15:21.350Z,28.10
2023-02-24T01:16:03.585Z,28.13
2023-02-24T01:16:50.696Z,29.20
2023-02-24T01:18:10.820Z,28.07
2023-02-24T01:18:52.730Z,28.87
2023-02-24T01:19:35.657Z,28.17
2023-02-24T01:20:19.283Z,29.33
2023-02-24T01:21:00.483Z,29.13
2023-02-24T01:21:43.061Z,27.93
2023-02-24T01:23:49.939Z,28.53
2023-02-24T01:25:09.485Z,28.00
2023-02-24T01:25:52.328Z,28.40
2023-02-24T01:26:31.828Z,27.77
2023-02-24T01:27:12.468Z,27.93
2023-02-24T01:27:59.700Z,28.20
2023-02-24T01:28:39.803Z,27.53
2023-02-24T01:29:22.827Z,27.37
2023-02-24T01:30:01.828Z,27.27
2023-02-24T01:30:43.971Z,28.07
2023-02-24T01:31:28.322Z,28.03
2023-02-24T01:32:21.440Z,27.93
2023-02-24T01:33:02.307Z,28.17
2023-02-24T01:34:19.786Z,27.73
2023-02-24T01:35:12.300Z,28.23
2023-02-24T01:35:55.486Z,27.77
2023-02-24T01:36:35.917Z,27.17
2023-02-24T01:37:19.616Z,27.83
2023-02-24T01:38:08.635Z,27.90
2023-02-24T01:39:12.210Z,27.83
2023-02-24T01:39:52.958Z,28.30
2023-02-24T01:40:32.369Z,28.13
2023-02-24T01:41:16.956Z,28.50
2023-02-24T01:42:00.921Z,28.40
2023-02-24T01:42:42.770Z,27.77
2023-02-24T01:43:55.832Z,28.53
2023-02-24T01:44:43.717Z,27.23
2023-02-24T01:45:29.064Z,28.50
2023-02-24T01:46:13.740Z,30.67
2023-02-24T01:46:53.767Z,28.60
2023-02-24T01:47:33.917Z,27.77
2023-02-24T01:48:14.809Z,28.10
2023-02-24T01:48:59.420Z,26.93
2023-02-24T01:49:44.391Z,26.77
2023-02-24T01:50:26.362Z,28.37
2023-02-24T01:51:08.430Z,27.53
2023-02-24T01:51:54.576Z,26.77
2023-02-24T01:54:33.463Z,28.07
2023-02-24T01:55:29.412Z,28.27
2023-02-24T01:56:08.696Z,27.93
2023-02-24T01:56:52.070Z,27.00
2023-02-24T01:57:31.561Z,27.47
2023-02-24T01:58:16.690Z,27.13
2023-02-24T01:58:57.128Z,26.07
2023-02-24T01:59:38.161Z,28.37
2023-02-24T02:00:51.273Z,27.63
2023-02-24T02:01:41.210Z,28.67
2023-02-24T02:03:47.337Z,27.03
2023-02-24T02:05:19.180Z,25.90
2023-02-24T02:06:11.322Z,26.80
2023-02-24T02:07:06.270Z,25.63
2023-02-24T02:07:47.003Z,25.63
2023-02-24T02:08:50.865Z,25.97
2023-02-24T02:13:07.696Z,27.63
2023-02-24T02:14:31.398Z,27.37
2023-02-24T02:16:25.829Z,27.97
2023-02-24T02:17:05.850Z,27.63
2023-02-24T02:18:06.127Z,28.27
2023-02-24T02:19:18.669Z,28.70
2023-02-24T02:20:25.620Z,28.83
2023-02-24T02:21:27.007Z,28.37
2023-02-24T02:24:17.236Z,28.47
2023-02-24T02:25:39.706Z,29.33
2023-02-24T02:26:53.808Z,28.17
2023-02-24T02:27:32.921Z,29.80
2023-02-24T02:28:59.322Z,30.10
2023-02-24T02:31:39.338Z,27.13
2023-02-24T02:32:28.871Z,27.47
2023-02-24T02:33:28.149Z,27.13
2023-02-24T02:34:37.962Z,26.03
2023-02-24T02:35:42.746Z,24.87
2023-02-24T02:38:12.060Z,25.63
2023-02-24T02:38:50.983Z,26.07
2023-02-24T02:39:38.140Z,25.90
2023-02-24T02:40:37.698Z,27.27
2023-02-24T02:42:01.799Z,28.07
2023-02-24T02:43:04.299Z,26.83
2023-02-24T02:43:50.304Z,26.73
2023-02-24T02:44:32.426Z,26.03
2023-02-24T02:45:14.628Z,26.30
2023-02-24T02:46:06.668Z,26.00
2023-02-24T02:47:03.805Z,26.67
2023-02-24T02:48:06.989Z,26.77
2023-02-24T02:49:27.862Z,26.03
2023-02-24T02:50:29.001Z,25.90
2023-02-24T02:51:32.602Z,25.47
2023-02-24T02:52:29.969Z,25.43
2023-02-24T02:54:06.322Z,25.67
2023-02-24T02:54:44.877Z,24.30
2023-02-24T02:56:08.640Z,24.73
2023-02-24T02:56:59.911Z,25.90
2023-02-24T02:57:49.193Z,25.67
2023-02-24T02:58:37.733Z,26.07
2023-02-24T02:59:25.188Z,24.30
2023-02-24T03:00:14.861Z,24.93
2023-02-24T03:01:04.593Z,24.87
2023-02-24T03:04:01.362Z,25.30
2023-02-24T03:05:31.694Z,25.90
2023-02-24T03:06:11.909Z,25.30
2023-02-24T03:07:00.587Z,25.47
2023-02-24T03:09:47.934Z,26.10
2023-02-24T03:10:35.160Z,24.97
2023-02-24T03:11:15.148Z,25.20
2023-02-24T03:11:59.991Z,25.57
2023-02-24T03:12:52.171Z,24.97
2023-02-24T03:13:37.483Z,25.60
2023-02-24T03:14:24.477Z,25.13
2023-02-24T03:15:30.379Z,25.30
2023-02-24T03:16:08.838Z,26.57
2023-02-24T03:16:53.022Z,25.97
2023-02-24T03:17:42.489Z,25.37
2023-02-24T03:19:00.862Z,26.00
2023-02-24T03:19:44.213Z,25.60
2023-02-24T03:21:11.989Z,27.17
2023-02-24T03:21:52.177Z,26.67
2023-02-24T03:24:36.767Z,25.73
2023-02-24T03:26:19.129Z,25.70
2023-02-24T03:27:07.238Z,24.97
2023-02-24T03:29:19.167Z,25.90
2023-02-24T03:30:17.588Z,26.97
2023-02-24T03:31:49.453Z,26.50
2023-02-24T03:32:44.108Z,26.27
2023-02-24T03:34:44.604Z,25.40
2023-02-24T03:36:05.920Z,26.90
2023-02-24T03:37:24.854Z,26.03
2023-02-24T03:38:06.647Z,28.07
2023-02-24T03:38:49.396Z,26.50
2023-02-24T03:39:37.449Z,27.23
2023-02-24T03:40:18.799Z,26.50
2023-02-24T03:41:01.302Z,27.23
2023-02-24T03:42:06.204Z,26.90
2023-02-24T03:42:48.196Z,27.10
2023-02-24T03:45:19.387Z,27.10
2023-02-24T03:46:00.766Z,27.57
2023-02-24T03:46:42.722Z,26.03
2023-02-24T03:50:49.714Z,28.90
2023-02-24T03:53:01.712Z,28.33
2023-02-24T03:54:12.746Z,27.70
2023-02-24T03:55:12.494Z,27.63
2023-02-24T03:56:23.941Z,28.73
2023-02-24T03:57:04.216Z,27.80
2023-02-24T03:58:08.461Z,26.43
2023-02-24T03:59:29.384Z,28.07
2023-02-24T04:00:26.450Z,27.63
2023-02-24T04:01:25.519Z,27.03
2023-02-24T04:02:28.691Z,26.23
2023-02-24T04:03:57.727Z,27.30
2023-02-24T04:06:49.844Z,27.47
2023-02-24T04:07:29.873Z,28.63
2023-02-24T04:08:10.593Z,28.47
2023-02-24T04:10:09.556Z,32.50
2023-02-24T04:11:05.705Z,33.07
2023-02-24T04:12:03.176Z,34.00
2023-02-24T04:12:50.617Z,33.10
2023-02-24T04:14:59.197Z,29.17
2023-02-24T04:15:44.104Z,30.30
2023-02-24T04:17:46.215Z,28.47
2023-02-24T04:18:31.573Z,28.13
2023-02-24T04:21:32.246Z,27.53
2023-02-24T04:22:17.418Z,28.63
2023-02-24T04:22:57.997Z,28.33
2023-02-24T04:23:45.284Z,29.10
2023-02-24T04:24:31.384Z,28.30
2023-02-24T04:25:19.729Z,27.60
2023-02-24T04:26:07.024Z,29.03
2023-02-24T04:26:48.657Z,29.00
2023-02-24T04:27:29.279Z,28.40
2023-02-24T04:28:11.378Z,28.77
2023-02-24T04:29:41.231Z,28.90
2023-02-24T04:30:48.533Z,28.97
2023-02-24T04:32:32.942Z,29.67
2023-02-24T04:33:55.606Z,30.00
2023-02-24T04:34:35.258Z,29.33
2023-02-24T04:35:56.464Z,28.30
2023-02-24T04:37:56.186Z,28.50
2023-02-24T04:38:39.562Z,30.47
2023-02-24T04:39:23.534Z,30.63
2023-02-24T04:40:10.833Z,31.03
2023-02-24T04:42:53.187Z,31.23
2023-02-24T04:44:13.727Z,29.70
2023-02-24T04:44:55.201Z,30.37
2023-02-24T04:45:33.897Z,31.63
2023-02-24T04:46:14.025Z,30.57
2023-02-24T04:46:58.357Z,30.53
2023-02-24T04:47:37.657Z,30.83
2023-02-24T04:48:20.352Z,30.10
2023-02-24T04:49:23.369Z,30.67
2023-02-24T04:50:29.027Z,31.90
2023-02-24T04:53:55.573Z,30.83
2023-02-24T04:54:38.946Z,30.93
2023-02-24T04:55:21.360Z,30.23
2023-02-24T04:56:09.334Z,30.27
2023-02-24T04:56:52.605Z,30.67
2023-02-24T04:57:41.213Z,32.80
2023-02-24T04:58:28.309Z,35.10
2023-02-24T04:59:10.959Z,36.87
2023-02-24T04:59:54.049Z,34.17
2023-02-24T05:00:49.338Z,32.83
2023-02-24T05:02:00.551Z,32.00
2023-02-24T05:02:39.902Z,31.77
2023-02-24T05:03:22.656Z,30.87
2023-02-24T05:04:07.374Z,30.33
2023-02-24T05:04:54.242Z,31.83
2023-02-24T05:05:33.988Z,32.33
2023-02-24T05:06:23.557Z,30.33
2023-02-24T05:07:05.284Z,32.10
2023-02-24T05:07:47.850Z,31.40
2023-02-24T05:08:58.006Z,32.17
2023-02-24T05:09:38.622Z,31.17
2023-02-24T05:11:01.013Z,31.10
2023-02-24T05:11:42.922Z,32.07
2023-02-24T05:12:22.488Z,33.57
2023-02-24T05:14:44.212Z,31.27
2023-02-24T05:15:49.849Z,30.70
2023-02-24T05:19:19.034Z,31.50
2023-02-24T05:21:10.307Z,31.73
2023-02-24T05:22:07.110Z,31.43
2023-02-24T05:24:18.437Z,30.80
2023-02-24T05:25:01.287Z,31.40
2023-02-24T05:25:43.150Z,31.53
2023-02-24T05:26:25.928Z,31.47
2023-02-24T05:27:05.374Z,31.47
2023-02-24T05:27:50.161Z,30.97
2023-02-24T05:28:31.853Z,31.97
2023-02-24T05:29:19.230Z,30.87
2023-02-24T05:30:03.428Z,30.50
2023-02-24T05:31:24.001Z,31.00
2023-02-24T05:32:08.350Z,30.47
2023-02-24T05:33:11.820Z,32.17
2023-02-24T05:34:33.902Z,31.60
2023-02-24T05:35:13.497Z,31.27
2023-02-24T05:36:41.494Z,31.80
2023-02-24T05:37:28.518Z,29.57
2023-02-24T05:38:10.679Z,33.00
2023-02-24T05:38:58.305Z,33.23
2023-02-24T05:39:38.150Z,33.70
2023-02-24T05:40:23.433Z,34.47
2023-02-24T05:41:22.897Z,33.07
2023-02-24T05:42:45.412Z,32.83
2023-02-24T05:43:27.321Z,34.13
2023-02-24T05:44:12.511Z,33.20
2023-02-24T05:45:15.935Z,34.17
2023-02-24T05:45:55.925Z,33.40
2023-02-24T05:47:00.814Z,33.13
2023-02-24T05:47:40.312Z,33.47
2023-02-24T05:48:28.851Z,35.23
2023-02-24T05:49:33.105Z,34.57
2023-02-24T05:50:14.109Z,34.00
2023-02-24T05:51:08.057Z,34.10
2023-02-24T05:51:54.999Z,34.20
2023-02-24T05:52:37.910Z,34.13
2023-02-24T05:53:19.244Z,36.80
2023-02-24T05:53:58.997Z,35.03
2023-02-24T05:54:44.150Z,33.97
2023-02-24T05:55:24.424Z,34.10
2023-02-24T05:56:13.356Z,34.27
2023-02-24T05:57:07.121Z,33.17
2023-02-24T05:58:26.044Z,36.03
2023-02-24T05:59:21.584Z,33.87
2023-02-24T06:00:12.884Z,34.30
2023-02-24T06:00:52.516Z,34.77
2023-02-24T06:01:47.460Z,35.53
2023-02-24T06:02:27.942Z,35.70
2023-02-24T06:03:17.703Z,34.63
2023-02-24T06:04:05.936Z,35.40
2023-02-24T06:05:11.318Z,34.70
2023-02-24T06:06:29.474Z,33.80
2023-02-24T06:08:11.924Z,35.13
2023-02-24T06:09:01.983Z,33.73
2023-02-24T06:09:45.481Z,35.07
2023-02-24T06:10:34.076Z,34.93
2023-02-24T06:11:19.352Z,36.70
2023-02-24T06:12:26.862Z,36.33
2023-02-24T06:13:05.968Z,33.80
2023-02-24T06:13:49.176Z,34.07
2023-02-24T06:15:08.164Z,35.30
2023-02-24T06:15:57.417Z,35.07
2023-02-24T06:16:46.979Z,33.60
2023-02-24T06:17:50.826Z,33.97
2023-02-24T06:20:15.865Z,35.13
2023-02-24T06:21:00.729Z,35.40
2023-02-24T06:21:42.019Z,34.77
2023-02-24T06:22:25.428Z,35.73
2023-02-24T06:24:44.430Z,36.97
2023-02-24T06:25:26.957Z,35.67
2023-02-24T06:26:13.239Z,37.57
2023-02-24T06:26:53.817Z,35.50
2023-02-24T06:27:36.874Z,35.60
2023-02-24T06:28:16.457Z,35.37
2023-02-24T06:28:59.410Z,36.37
2023-02-24T06:29:52.046Z,36.67
2023-02-24T06:30:35.001Z,35.23
2023-02-24T06:31:17.392Z,35.10
2023-02-24T06:31:59.571Z,34.13
2023-02-24T06:32:43.450Z,33.73
2023-02-24T06:33:26.486Z,33.33
2023-02-24T06:34:14.138Z,33.67
2023-02-24T06:35:06.269Z,35.13
2023-02-24T06:36:09.687Z,33.63
2023-02-24T06:37:13.742Z,32.63
2023-02-24T06:37:56.354Z,31.17
2023-02-24T06:40:52.651Z,32.43
2023-02-24T06:41:39.005Z,34.73
2023-02-24T06:42:19.962Z,31.50
2023-02-24T06:43:10.402Z,33.40
2023-02-24T06:43:53.393Z,33.13
2023-02-24T06:44:38.405Z,32.27
2023-02-24T06:45:31.115Z,33.47
2023-02-24T06:46:12.961Z,32.87
2023-02-24T06:47:00.333Z,32.40
2023-02-24T06:47:39.699Z,33.87
2023-02-24T06:48:18.629Z,33.50
2023-02-24T06:49:09.988Z,33.60
2023-02-24T06:49:51.091Z,34.77
2023-02-24T06:50:31.251Z,33.37
2023-02-24T06:51:16.072Z,34.63
2023-02-24T06:51:57.861Z,33.17
2023-02-24T06:52:49.270Z,32.00
2023-02-24T06:55:06.858Z,33.60
2023-02-24T06:55:49.369Z,33.47
2023-02-24T06:56:32.234Z,33.27
2023-02-24T06:57:13.126Z,32.30
2023-02-24T06:58:05.189Z,34.97
2023-02-24T06:58:50.849Z,34.17
2023-02-24T06:59:35.501Z,34.10
2023-02-24T07:00:37.351Z,33.77
2023-02-24T07:01:29.542Z,34.57
2023-02-24T07:02:11.295Z,33.17
2023-02-24T07:02:50.532Z,33.33
2023-02-24T07:03:40.458Z,32.53
2023-02-24T07:04:20.051Z,34.63
2023-02-24T07:05:01.425Z,35.80
2023-02-24T07:07:03.785Z,33.77
2023-02-24T07:07:51.362Z,34.67
2023-02-24T07:08:59.623Z,34.63
2023-02-24T07:09:43.044Z,35.27
2023-02-24T07:11:08.186Z,35.10
2023-02-24T07:12:21.053Z,35.87
2023-02-24T07:13:00.446Z,35.20
2023-02-24T07:14:18.375Z,33.43
2023-02-24T07:15:10.476Z,33.73
2023-02-24T07:15:50.273Z,36.10
2023-02-24T07:16:43.032Z,35.33
2023-02-24T07:17:23.608Z,35.80
2023-02-24T07:18:14.978Z,35.27
2023-02-24T07:20:12.382Z,35.47
2023-02-24T07:21:05.320Z,34.77
2023-02-24T07:21:52.900Z,34.27
2023-02-24T07:22:40.167Z,35.67
2023-02-24T07:23:24.440Z,34.20
2023-02-24T07:25:58.598Z,34.40
2023-02-24T07:26:42.149Z,34.93
2023-02-24T07:27:32.865Z,33.53
2023-02-24T07:28:14.575Z,33.63
2023-02-24T07:28:57.081Z,34.23
2023-02-24T07:30:06.290Z,33.67
2023-02-24T07:30:50.378Z,33.57
2023-02-24T07:31:39.481Z,33.93
2023-02-24T07:32:22.785Z,35.57
2023-02-24T07:33:07.354Z,34.30
2023-02-24T07:35:53.053Z,34.70
2023-02-24T07:36:49.400Z,33.70
2023-02-24T07:37:53.492Z,34.30
2023-02-24T07:38:40.072Z,34.73
2023-02-24T07:39:44.885Z,33.87
2023-02-24T07:42:26.080Z,35.47
2023-02-24T07:42:58.491Z,34.30
2023-02-24T07:43:30.786Z,35.43
2023-02-24T07:44:10.757Z,34.87
2023-02-24T07:44:58.258Z,33.77
2023-02-24T07:45:38.855Z,33.13
2023-02-24T07:46:37.063Z,34.33
2023-02-24T07:47:29.728Z,35.57
2023-02-24T07:48:15.184Z,34.87
2023-02-24T07:48:59.998Z,34.33
2023-02-24T07:49:47.552Z,34.37
2023-02-24T07:50:33.004Z,34.40
2023-02-24T07:51:17.093Z,35.17
2023-02-24T07:53:10.357Z,35.43
2023-02-24T07:54:13.606Z,34.07
2023-02-24T07:57:42.449Z,34.07
2023-02-24T07:58:24.796Z,33.43
2023-02-24T08:00:30.026Z,33.90
2023-02-24T08:01:49.993Z,33.53
2023-02-24T08:05:51.031Z,32.47
2023-02-24T08:06:38.166Z,32.83
2023-02-24T08:08:06.882Z,33.13
2023-02-24T08:10:24.618Z,32.33
2023-02-24T08:11:36.316Z,33.67
2023-02-24T08:13:25.425Z,30.17
2023-02-24T08:14:13.994Z,29.73
2023-02-24T08:17:44.357Z,31.03
2023-02-24T08:18:24.881Z,29.77
2023-02-24T08:24:07.062Z,30.67
2023-02-24T08:25:56.931Z,30.93
2023-02-24T08:26:44.950Z,30.20
2023-02-24T08:27:32.405Z,32.13
2023-02-24T08:28:28.172Z,29.20
2023-02-24T08:29:21.936Z,29.43
2023-02-24T08:30:32.206Z,30.50
2023-02-24T08:32:47.339Z,27.63
2023-02-24T08:34:49.810Z,25.63
2023-02-24T08:35:38.100Z,23.90
2023-02-24T08:38:00.804Z,23.80
2023-02-24T08:38:57.254Z,22.40
2023-02-24T08:40:08.523Z,22.37
2023-02-24T08:41:44.012Z,20.47
2023-02-24T08:43:54.013Z,20.87
2023-02-24T08:46:22.843Z,20.43
2023-02-24T08:48:50.134Z,19.60
2023-02-24T08:56:05.659Z,21.33
2023-02-24T08:57:54.481Z,21.63
2023-02-24T09:00:51.081Z,21.13
2023-02-24T09:02:19.555Z,21.30
2023-02-24T09:03:37.351Z,20.93
2023-02-24T09:04:19.931Z,20.27
2023-02-24T09:05:05.010Z,20.57
2023-02-24T09:06:08.904Z,20.87
2023-02-24T09:07:11.601Z,19.63
2023-02-24T09:08:16.013Z,20.13
2023-02-24T09:09:58.874Z,19.43
2023-02-24T09:10:34.047Z,19.23
2023-02-24T09:13:36.594Z,20.60
2023-02-24T09:14:28.023Z,19.87
2023-02-24T09:15:11.305Z,20.43
2023-02-24T09:15:53.723Z,19.13
2023-02-24T09:17:07.420Z,19.57
2023-02-24T09:18:07.432Z,19.20
2023-02-24T09:19:48.817Z,19.50
2023-02-24T09:21:36.381Z,18.83
2023-02-24T09:22:57.408Z,18.67
2023-02-24T09:23:46.228Z,19.30
2023-02-24T09:24:30.939Z,18.90
2023-02-24T09:25:30.060Z,18.67
2023-02-24T09:26:17.958Z,18.17
2023-02-24T09:27:29.449Z,17.63
2023-02-24T09:28:59.200Z,18.00
2023-02-24T09:29:51.500Z,18.80
2023-02-24T09:30:51.589Z,17.37
2023-02-24T09:36:33.039Z,15.40
2023-02-24T09:37:27.873Z,15.50
2023-02-24T09:38:07.361Z,16.13
2023-02-24T09:39:15.167Z,15.80
2023-02-24T09:40:49.244Z,14.47
2023-02-24T09:44:48.528Z,15.93
2023-02-24T09:48:16.831Z,14.40
2023-02-24T09:49:40.396Z,14.83
2023-02-24T09:54:02.237Z,12.93
2023-02-24T09:55:11.528Z,12.10
2023-02-24T09:56:23.065Z,13.07
2023-02-24T10:01:22.052Z,12.57
2023-02-24T10:02:19.478Z,12.83
2023-02-24T10:03:30.257Z,13.00
2023-02-24T10:04:36.402Z,12.27
2023-02-24T10:05:19.549Z,12.40
2023-02-24T10:06:04.785Z,12.60
2023-02-24T10:06:46.907Z,10.73
2023-02-24T10:07:40.702Z,11.43
2023-02-24T10:08:32.652Z,12.63
2023-02-24T10:09:37.494Z,12.70
2023-02-24T10:10:29.508Z,12.07
2023-02-24T10:11:34.028Z,12.17
2023-02-24T10:12:29.560Z,12.13
2023-02-24T10:13:54.962Z,12.63
2023-02-24T10:14:44.023Z,12.17
2023-02-24T10:15:57.396Z,12.33
2023-02-24T10:16:44.091Z,11.40
2023-02-24T10:17:40.508Z,11.50
2023-02-24T10:18:32.246Z,12.17
2023-02-24T10:19:29.748Z,12.00
2023-02-24T10:20:32.124Z,11.43
2023-02-24T10:22:30.387Z,11.30
2023-02-24T10:23:59.674Z,11.47
2023-02-24T10:25:36.465Z,11.80
2023-02-24T10:26:32.269Z,11.73
2023-02-24T10:27:16.699Z,12.57
2023-02-24T10:29:22.776Z,11.20
2023-02-24T10:30:20.545Z,11.03
2023-02-24T10:32:00.105Z,10.57
2023-02-24T10:35:43.682Z,11.67
2023-02-24T10:36:36.554Z,11.23
2023-02-24T10:37:29.566Z,11.17
2023-02-24T10:38:10.727Z,10.80
2023-02-24T10:39:08.771Z,10.23
2023-02-24T10:42:18.759Z,10.80
2023-02-24T10:43:21.151Z,10.63
2023-02-24T10:44:36.382Z,11.00
2023-02-24T10:46:17.536Z,11.07
2023-02-24T10:47:11.732Z,11.40
2023-02-24T10:48:00.553Z,10.77
2023-02-24T10:48:42.477Z,10.80
2023-02-24T10:52:01.180Z,9.60
2023-02-24T10:52:51.313Z,10.60
2023-02-24T10:54:25.891Z,11.33
2023-02-24T10:55:43.540Z,10.13
2023-02-24T10:56:30.381Z,10.47
2023-02-24T10:57:39.493Z,12.17
2023-02-24T10:58:56.433Z,12.07
2023-02-24T11:01:28.091Z,11.80
2023-02-24T11:02:55.561Z,11.27
2023-02-24T11:03:48.188Z,11.53
2023-02-24T11:05:04.381Z,12.23
2023-02-24T11:06:04.308Z,11.20
2023-02-24T11:07:09.715Z,10.87
2023-02-24T11:07:56.514Z,11.30
2023-02-24T11:09:27.857Z,11.33
2023-02-24T11:11:07.422Z,10.57
2023-02-24T11:12:08.211Z,11.23
2023-02-24T11:13:14.787Z,11.23
2023-02-24T11:15:08.141Z,10.77
2023-02-24T11:16:42.139Z,10.87
2023-02-24T11:17:29.273Z,10.50
2023-02-24T11:18:31.091Z,10.83
2023-02-24T11:19:15.525Z,10.77
2023-02-24T11:22:08.957Z,9.63
2023-02-24T11:22:52.627Z,10.47
2023-02-24T11:27:37.010Z,11.77
2023-02-24T11:28:29.028Z,10.93
2023-02-24T11:29:27.105Z,10.83
2023-02-24T11:30:46.379Z,10.47
2023-02-24T11:31:27.086Z,10.10
2023-02-24T11:32:12.146Z,10.67
2023-02-24T11:33:28.484Z,10.97
2023-02-24T11:34:28.999Z,11.03
2023-02-24T11:35:30.042Z,10.83
2023-02-24T11:36:28.170Z,11.10
2023-02-24T11:37:21.027Z,11.57
2023-02-24T11:39:17.148Z,11.57
2023-02-24T11:41:22.187Z,11.07
2023-02-24T11:44:32.990Z,11.30
2023-02-24T11:45:38.265Z,10.97
2023-02-24T11:48:19.745Z,11.27
2023-02-24T11:49:52.733Z,11.23
2023-02-24T11:51:35.788Z,11.03
2023-02-24T11:52:29.970Z,10.50
2023-02-24T11:58:09.542Z,10.87
2023-02-24T11:59:22.419Z,10.90
2023-02-24T12:01:01.737Z,10.67
2023-02-24T12:02:08.088Z,11.57
2023-02-24T12:03:00.136Z,11.13
2023-02-24T12:06:29.189Z,10.77
2023-02-24T12:09:11.598Z,11.50
2023-02-24T12:10:20.907Z,12.03
2023-02-24T12:11:34.462Z,10.30
2023-02-24T12:12:30.756Z,10.30
2023-02-24T12:13:56.524Z,9.60
2023-02-24T12:15:23.040Z,9.50
2023-02-24T12:16:33.466Z,8.90
2023-02-24T12:18:15.126Z,9.20
2023-02-24T12:19:44.998Z,9.17
2023-02-24T12:20:44.491Z,8.83
2023-02-24T12:24:15.016Z,9.20
2023-02-24T12:24:54.817Z,8.90
2023-02-24T12:25:55.945Z,9.57
2023-02-24T12:27:08.659Z,9.77
2023-02-24T12:28:05.341Z,9.97
2023-02-24T12:29:21.066Z,9.93
2023-02-24T12:30:48.880Z,9.47
2023-02-24T12:33:31.976Z,10.20
2023-02-24T12:34:43.581Z,9.87
2023-02-24T12:35:50.249Z,9.73
2023-02-24T12:37:34.885Z,10.67
2023-02-24T12:38:46.009Z,9.97
2023-02-24T12:40:02.087Z,9.70
2023-02-24T12:40:42.311Z,9.60
2023-02-24T12:41:40.032Z,9.73
2023-02-24T12:43:10.214Z,9.17
2023-02-24T12:45:21.878Z,9.87
2023-02-24T12:46:01.498Z,8.73
2023-02-24T12:46:41.533Z,9.47
2023-02-24T12:47:38.631Z,9.17
2023-02-24T12:48:25.238Z,9.33
2023-02-24T12:49:47.329Z,9.20
2023-02-24T12:51:00.344Z,8.97
2023-02-24T12:52:00.563Z,9.37
2023-02-24T12:53:08.117Z,9.10
2023-02-24T12:54:03.954Z,9.43
2023-02-24T12:54:51.304Z,9.57
2023-02-24T12:55:40.205Z,8.63
2023-02-24T12:56:40.713Z,9.53
2023-02-24T12:57:21.533Z,9.00
2023-02-24T12:58:19.367Z,10.00
2023-02-24T12:59:06.813Z,9.77
2023-02-24T12:59:47.539Z,9.27
2023-02-24T13:00:44.973Z,8.77
2023-02-24T13:01:29.206Z,9.27
2023-02-24T13:02:51.615Z,9.43
2023-02-24T13:03:30.049Z,9.63
2023-02-24T13:04:52.518Z,9.43
2023-02-24T13:06:38.385Z,8.83
2023-02-24T13:07:39.022Z,8.77
2023-02-24T13:08:42.645Z,9.07
2023-02-24T13:09:46.546Z,9.07
2023-02-24T13:10:49.502Z,8.83
2023-02-24T13:11:49.711Z,9.00
2023-02-24T13:13:19.014Z,8.77
2023-02-24T13:14:20.712Z,8.77
2023-02-24T13:15:50.379Z,9.30
2023-02-24T13:17:23.832Z,9.00
2023-02-24T13:19:45.484Z,9.30
2023-02-24T13:20:42.960Z,8.70
2023-02-24T13:22:19.513Z,9.23
2023-02-24T13:23:57.852Z,9.30
2023-02-24T13:24:56.219Z,8.87
2023-02-24T13:25:50.448Z,9.73
2023-02-24T13:26:44.885Z,9.63
2023-02-24T13:29:24.650Z,9.37
2023-02-24T13:32:18.423Z,9.73
2023-02-24T13:33:21.432Z,9.67
2023-02-24T13:36:17.883Z,9.63
2023-02-24T13:36:59.160Z,9.83
2023-02-24T13:37:44.386Z,10.13
2023-02-24T13:38:39.442Z,10.50
2023-02-24T13:39:46.943Z,9.30
2023-02-24T13:42:07.221Z,9.43
2023-02-24T13:42:53.194Z,10.13
2023-02-24T13:43:56.959Z,9.93
2023-02-24T13:44:50.142Z,9.67
2023-02-24T13:47:40.532Z,9.87
2023-02-24T13:48:50.939Z,9.80
2023-02-24T13:49:58.845Z,9.47
2023-02-24T13:50:44.683Z,9.37
2023-02-24T13:51:49.834Z,9.60
2023-02-24T13:52:56.933Z,9.53
2023-02-24T13:53:57.719Z,8.87
2023-02-24T13:56:15.142Z,8.97
2023-02-24T13:59:26.560Z,8.87
2023-02-24T14:00:10.275Z,9.13
2023-02-24T14:01:02.365Z,9.90
2023-02-24T14:02:26.828Z,9.10
2023-02-24T14:05:11.867Z,9.43
2023-02-24T14:06:18.353Z,10.13
2023-02-24T14:07:11.901Z,13.70
2023-02-24T14:07:56.505Z,10.87
2023-02-24T14:08:51.030Z,10.23
2023-02-24T14:09:39.706Z,9.40
2023-02-24T14:10:44.758Z,9.13
2023-02-24T14:13:57.235Z,9.17
2023-02-24T14:15:30.429Z,9.40
2023-02-24T14:16:14.035Z,8.67
2023-02-24T14:17:20.345Z,8.97
2023-02-24T14:19:45.390Z,8.23
2023-02-24T14:20:27.412Z,9.07
2023-02-24T14:21:21.082Z,9.07
2023-02-24T14:22:25.082Z,9.10
2023-02-24T14:27:05.081Z,9.40
2023-02-24T14:28:08.865Z,9.17
2023-02-24T14:29:46.251Z,8.50
2023-02-24T14:31:03.997Z,8.63
2023-02-24T14:37:03.873Z,8.60
2023-02-24T14:39:49.534Z,9.00
2023-02-24T14:40:56.806Z,9.57
2023-02-24T14:45:05.572Z,9.53
2023-02-24T14:46:11.398Z,9.53
2023-02-24T14:51:17.195Z,8.37
2023-02-24T14:52:39.927Z,9.37
2023-02-24T14:54:22.269Z,9.27
2023-02-24T14:55:26.228Z,8.93
2023-02-24T14:56:12.080Z,9.47
2023-02-24T14:57:18.359Z,9.13
2023-02-24T14:58:19.683Z,8.77
2023-02-24T14:59:21.421Z,8.53
2023-02-24T15:00:50.422Z,9.10
2023-02-24T15:02:19.651Z,9.23
2023-02-24T15:03:19.585Z,8.70
2023-02-24T15:04:11.045Z,8.97
2023-02-24T15:04:51.526Z,9.07
2023-02-24T15:05:32.106Z,8.67
2023-02-24T15:06:14.235Z,9.47
2023-02-24T15:07:04.293Z,9.83
2023-02-24T15:07:46.553Z,9.27
2023-02-24T15:08:49.090Z,9.17
2023-02-24T15:09:35.694Z,9.80
2023-02-24T15:11:39.591Z,9.63
2023-02-24T15:12:43.958Z,8.97
2023-02-24T15:14:40.236Z,8.40
2023-02-24T15:16:38.857Z,8.97
2023-02-24T15:17:22.229Z,9.37
2023-02-24T15:20:03.206Z,8.63
2023-02-24T15:21:02.854Z,8.97
2023-02-24T15:21:44.732Z,8.97
2023-02-24T15:22:35.745Z,8.90
2023-02-24T15:23:59.715Z,8.83
2023-02-24T15:24:40.516Z,8.43
2023-02-24T15:25:46.118Z,8.80
2023-02-24T15:26:25.252Z,9.07
2023-02-24T15:27:17.364Z,9.90
2023-02-24T15:28:02.806Z,9.47
2023-02-24T15:28:44.744Z,8.90
2023-02-24T15:29:29.968Z,9.30